createdAt,value
2022-08-11T00:02:29.620Z,95314.78
2022-08-11T00:05:02.713Z,95321.69
2022-08-11T00:07:33.084Z,95322.38
2022-08-11T00:10:02.981Z,95317.78
2022-08-11T00:12:31.935Z,95316.81
2022-08-11T00:15:02.421Z,95304.50
2022-08-11T00:17:33.775Z,95314.22
2022-08-11T00:20:12.187Z,95312.72
2022-08-11T00:22:46.178Z,95312.88
2022-08-11T00:25:17.576Z,95304.03
2022-08-11T00:27:48.077Z,95310.97
2022-08-11T00:30:17.475Z,95314.00
2022-08-11T00:32:56.332Z,95308.94
2022-08-11T00:35:55.789Z,95276.25
2022-08-11T00:38:26.033Z,95299.56
2022-08-11T00:41:18.036Z,95312.72
2022-08-11T00:44:11.560Z,95284.78
2022-08-11T00:46:52.510Z,95295.63
2022-08-11T00:49:34.411Z,95324.03
2022-08-11T00:52:14.799Z,95268.50
2022-08-11T00:55:15.496Z,95308.22
2022-08-11T00:58:32.313Z,95232.09
2022-08-11T01:01:22.746Z,95243.22
2022-08-11T01:04:24.988Z,95228.16
2022-08-11T01:08:00.511Z,95241.03
2022-08-11T01:10:50.601Z,95311.16
2022-08-11T01:13:59.434Z,95272.94
2022-08-11T01:17:01.268Z,95309.25
2022-08-11T01:20:45.969Z,95305.75
2022-08-11T01:23:42.484Z,95308.75
2022-08-11T01:26:49.968Z,95299.75
2022-08-11T01:29:50.943Z,95279.50
2022-08-11T01:32:55.362Z,95292.63
2022-08-11T01:35:37.362Z,95299.38
2022-08-11T01:38:39.727Z,95263.44
2022-08-11T01:41:47.614Z,95296.31
2022-08-11T01:44:47.016Z,95116.81
2022-08-11T01:47:52.711Z,95245.59
2022-08-11T01:50:39.140Z,95264.91
2022-08-11T01:53:19.969Z,95298.41
2022-08-11T01:55:58.114Z,95282.13
2022-08-11T01:58:43.461Z,95291.28
2022-08-11T02:01:26.489Z,95284.56
2022-08-11T02:04:00.187Z,95294.34
2022-08-11T02:06:56.062Z,95294.88
2022-08-11T02:09:49.249Z,95273.34
2022-08-11T02:12:29.585Z,95291.34
2022-08-11T02:15:09.265Z,95280.00
2022-08-11T02:17:50.113Z,95283.41
2022-08-11T02:20:44.821Z,95274.84
2022-08-11T02:24:05.990Z,95284.53
2022-08-11T02:26:37.687Z,95286.72
2022-08-11T02:29:17.205Z,95283.63
2022-08-11T02:32:25.554Z,95288.53
2022-08-11T02:35:05.062Z,95237.66
2022-08-11T02:37:45.382Z,95198.13
2022-08-11T02:40:25.258Z,95292.88
2022-08-11T02:43:23.853Z,95285.13
2022-08-11T02:46:02.475Z,95292.44
2022-08-11T02:49:06.191Z,95290.66
2022-08-11T02:51:42.215Z,95290.91
2022-08-11T02:54:18.844Z,95284.91
2022-08-11T02:56:56.117Z,95292.50
2022-08-11T02:59:53.767Z,95091.19
2022-08-11T03:02:48.614Z,95295.47
2022-08-11T03:05:52.657Z,95299.47
2022-08-11T03:08:37.302Z,95302.25
2022-08-11T03:11:30.367Z,95303.84
2022-08-11T03:14:34.135Z,95302.69
2022-08-11T03:17:14.614Z,95299.66
2022-08-11T03:19:54.705Z,95271.47
2022-08-11T03:22:27.501Z,95295.22
2022-08-11T03:25:02.706Z,95301.47
2022-08-11T03:27:40.701Z,95298.34
2022-08-11T03:30:14.882Z,95259.63
2022-08-11T03:33:21.381Z,95300.78
2022-08-11T03:36:12.030Z,95246.09
2022-08-11T03:38:58.186Z,95281.59
2022-08-11T03:42:01.558Z,95296.59
2022-08-11T03:44:53.353Z,95299.19
2022-08-11T03:47:55.045Z,95247.13
2022-08-11T03:50:44.107Z,95183.47
2022-08-11T03:53:20.293Z,95289.88
2022-08-11T03:56:14.430Z,95287.00
2022-08-11T03:59:21.145Z,95255.25
2022-08-11T04:02:16.177Z,95256.28
2022-08-11T04:05:20.835Z,95298.25
2022-08-11T04:08:22.362Z,95300.16
2022-08-11T04:11:27.092Z,95294.16
2022-08-11T04:14:41.824Z,95277.50
2022-08-11T04:17:39.953Z,95212.94
2022-08-11T04:20:41.457Z,95293.00
2022-08-11T04:24:13.273Z,95282.88
2022-08-11T04:26:35.280Z,95293.34
2022-08-11T04:29:19.234Z,95163.44
2022-08-11T04:32:05.987Z,95248.69
2022-08-11T04:34:52.878Z,95311.00
2022-08-11T04:37:53.434Z,95309.41
2022-08-11T04:40:52.105Z,95321.34
2022-08-11T04:44:02.841Z,95319.47
2022-08-11T04:47:05.996Z,95310.47
2022-08-11T04:50:22.641Z,95262.41
2022-08-11T04:53:27.159Z,95283.16
2022-08-11T04:56:29.130Z,95236.25
2022-08-11T04:59:59.139Z,95302.34
2022-08-11T05:03:00.581Z,95273.53
2022-08-11T05:05:54.718Z,95262.31
2022-08-11T05:09:00.709Z,95301.91
2022-08-11T05:12:03.764Z,95307.59
2022-08-11T05:14:52.639Z,95301.31
2022-08-11T05:17:46.711Z,95305.41
2022-08-11T05:20:32.737Z,95304.59
2022-08-11T05:23:23.892Z,95304.50
2022-08-11T05:26:46.698Z,95315.59
2022-08-11T05:29:24.466Z,95317.72
2022-08-11T05:32:20.539Z,95302.09
2022-08-11T05:34:55.075Z,95318.94
2022-08-11T05:37:33.365Z,95317.38
2022-08-11T05:40:25.187Z,95316.22
2022-08-11T05:43:16.228Z,95320.16
2022-08-11T05:46:06.237Z,95325.47
2022-08-11T05:48:55.141Z,95317.53
2022-08-11T05:51:55.241Z,95210.88
2022-08-11T05:54:46.062Z,95307.75
2022-08-11T05:57:48.997Z,95317.69
2022-08-11T06:00:16.043Z,95316.22
2022-08-11T06:02:46.141Z,95297.28
2022-08-11T06:05:15.341Z,95304.94
2022-08-11T06:07:48.398Z,95308.41
2022-08-11T06:10:28.640Z,95308.19
2022-08-11T06:13:01.233Z,95258.63
2022-08-11T06:15:33.104Z,95260.03
2022-08-11T06:18:03.063Z,95304.56
2022-08-11T06:20:37.664Z,95302.09
2022-08-11T06:23:10.055Z,95307.16
2022-08-11T06:25:39.570Z,95299.47
2022-08-11T06:28:09.661Z,95303.75
2022-08-11T06:30:42.766Z,95289.03
2022-08-11T06:33:14.760Z,95238.72
2022-08-11T06:35:58.925Z,95295.91
2022-08-11T06:38:45.649Z,95290.06
2022-08-11T06:41:32.364Z,95296.28
2022-08-11T06:44:18.242Z,95289.59
2022-08-11T06:46:51.220Z,95295.75
2022-08-11T06:49:39.513Z,95285.78
2022-08-11T06:52:34.316Z,95286.66
2022-08-11T06:55:06.650Z,95289.66
2022-08-11T06:57:54.125Z,95268.81
2022-08-11T07:00:33.130Z,95282.13
2022-08-11T07:03:09.574Z,95285.72
2022-08-11T07:05:46.239Z,95248.31
2022-08-11T07:09:01.825Z,95281.19
2022-08-11T07:12:21.332Z,95282.50
2022-08-11T07:15:10.794Z,95268.47
2022-08-11T07:17:49.996Z,95264.16
2022-08-11T07:20:37.603Z,95166.34
2022-08-11T07:23:28.713Z,95278.28
2022-08-11T07:26:19.378Z,95271.63
2022-08-11T07:28:59.099Z,95272.38
2022-08-11T07:31:37.567Z,95274.78
2022-08-11T07:34:19.296Z,95268.91
2022-08-11T07:36:54.968Z,95262.47
2022-08-11T07:39:25.928Z,95260.78
2022-08-11T07:41:58.377Z,95196.00
2022-08-11T07:44:34.855Z,95223.22
2022-08-11T07:47:21.995Z,95256.75
2022-08-11T07:50:09.045Z,95247.38
2022-08-11T07:52:40.741Z,95241.38
2022-08-11T07:55:15.670Z,95238.06
2022-08-11T07:58:15.517Z,95235.78
2022-08-11T08:01:10.549Z,95231.34
2022-08-11T08:04:02.870Z,95232.78
2022-08-11T08:06:51.536Z,95233.47
2022-08-11T08:09:40.702Z,95232.72
2022-08-11T08:12:27.665Z,95234.66
2022-08-11T08:15:14.815Z,95226.59
2022-08-11T08:18:20.826Z,95226.44
2022-08-11T08:20:47.646Z,95227.25
2022-08-11T08:23:17.709Z,95224.25
2022-08-11T08:25:48.346Z,95218.41
2022-08-11T08:28:19.053Z,95206.84
2022-08-11T08:30:51.284Z,95209.22
2022-08-11T08:33:22.937Z,95224.38
2022-08-11T08:36:11.781Z,95190.22
2022-08-11T08:38:42.668Z,95206.31
2022-08-11T08:41:16.449Z,95205.53
2022-08-11T08:43:50.320Z,95215.28
2022-08-11T08:46:23.533Z,95201.34
2022-08-11T08:48:53.174Z,95200.75
2022-08-11T08:52:01.953Z,95143.41
2022-08-11T08:54:35.696Z,95194.19
2022-08-11T08:57:07.163Z,95186.78
2022-08-11T08:59:48.932Z,95191.06
2022-08-11T09:02:20.083Z,95195.94
2022-08-11T09:05:04.235Z,95177.38
2022-08-11T09:07:39.131Z,95176.13
2022-08-11T09:10:11.487Z,95184.00
2022-08-11T09:12:43.626Z,95185.00
2022-08-11T09:15:15.171Z,95178.59
2022-08-11T09:17:50.526Z,95177.66
2022-08-11T09:20:22.979Z,95180.47
2022-08-11T09:24:07.469Z,95178.19
2022-08-11T09:26:18.244Z,95179.75
2022-08-11T09:28:50.243Z,95170.75
2022-08-11T09:31:19.380Z,95158.97
2022-08-11T09:33:55.553Z,95166.47
2022-08-11T09:36:41.177Z,95106.13
2022-08-11T09:39:30.989Z,95176.19
2022-08-11T09:42:04.230Z,95169.63
2022-08-11T09:44:50.166Z,95159.44
2022-08-11T09:47:24.621Z,95156.13
2022-08-11T09:49:58.300Z,95136.91
2022-08-11T09:52:27.912Z,95088.97
2022-08-11T09:54:56.805Z,95138.00
2022-08-11T09:57:43.943Z,95142.88
2022-08-11T10:00:15.596Z,95069.59
2022-08-11T10:02:46.723Z,95136.66
2022-08-11T10:05:37.475Z,95105.75
2022-08-11T10:08:06.989Z,95131.06
2022-08-11T10:10:38.811Z,95134.16
2022-08-11T10:14:04.953Z,95130.31
2022-08-11T10:16:15.803Z,95130.72
2022-08-11T10:18:52.953Z,95137.88
2022-08-11T10:21:29.324Z,95133.31
2022-08-11T10:24:18.043Z,95135.84
2022-08-11T10:26:58.986Z,95127.28
2022-08-11T10:29:49.993Z,95127.81
2022-08-11T10:32:49.337Z,95125.03
2022-08-11T10:35:28.203Z,95121.31
2022-08-11T10:38:07.650Z,95124.78
2022-08-11T10:40:40.263Z,95122.28
2022-08-11T10:43:14.465Z,95112.44
2022-08-11T10:46:29.739Z,95005.41
2022-08-11T10:49:02.197Z,95121.41
2022-08-11T10:51:52.124Z,95094.59
2022-08-11T10:54:41.005Z,95086.97
2022-08-11T10:57:28.035Z,95089.81
2022-08-11T10:59:57.453Z,95088.97
2022-08-11T11:02:27.398Z,95048.34
2022-08-11T11:05:14.461Z,95087.78
2022-08-11T11:07:54.129Z,95059.44
2022-08-11T11:10:22.897Z,95091.19
2022-08-11T11:13:13.368Z,95080.56
2022-08-11T11:16:02.882Z,95081.25
2022-08-11T11:18:36.151Z,95037.13
2022-08-11T11:21:08.892Z,95077.81
2022-08-11T11:23:47.496Z,95076.41
2022-08-11T11:26:39.762Z,95090.66
2022-08-11T11:29:47.662Z,95076.94
2022-08-11T11:32:25.930Z,95075.13
2022-08-11T11:35:15.189Z,95082.56
2022-08-11T11:38:00.047Z,95089.13
2022-08-11T11:40:33.527Z,95090.53
2022-08-11T11:43:02.958Z,95100.09
2022-08-11T11:45:31.619Z,95059.13
2022-08-11T11:48:02.355Z,95102.22
2022-08-11T11:50:33.223Z,95108.06
2022-08-11T11:53:07.100Z,95134.38
2022-08-11T11:55:36.592Z,95125.31
2022-08-11T11:58:24.069Z,95108.56
2022-08-11T12:01:12.458Z,95117.97
2022-08-11T12:03:41.795Z,95139.47
2022-08-11T12:06:14.435Z,95142.09
2022-08-11T12:08:45.432Z,95144.47
2022-08-11T12:11:32.145Z,95140.66
2022-08-11T12:14:03.571Z,95138.84
2022-08-11T12:16:40.973Z,95093.53
2022-08-11T12:19:12.852Z,95143.00
2022-08-11T12:22:03.189Z,95155.06
2022-08-11T12:24:52.721Z,95103.22
2022-08-11T12:27:25.725Z,95183.31
2022-08-11T12:29:57.689Z,95154.59
2022-08-11T12:32:29.278Z,95183.53
2022-08-11T12:34:58.600Z,95190.78
2022-08-11T12:37:32.233Z,95192.88
2022-08-11T12:40:43.152Z,95183.72
2022-08-11T12:43:37.145Z,95201.03
2022-08-11T12:46:10.249Z,95206.63
2022-08-11T12:49:03.037Z,95115.88
2022-08-11T12:52:11.887Z,95208.41
2022-08-11T12:54:51.759Z,95217.63
2022-08-11T12:57:52.280Z,95222.13
2022-08-11T13:00:38.890Z,95221.50
2022-08-11T13:03:27.534Z,95227.69
2022-08-11T13:05:58.314Z,95230.47
2022-08-11T13:08:29.701Z,95235.84
2022-08-11T13:11:19.276Z,95241.22
2022-08-11T13:13:57.075Z,95237.66
2022-08-11T13:16:30.291Z,95228.56
2022-08-11T13:19:01.508Z,95256.66
2022-08-11T13:21:31.147Z,95256.06
2022-08-11T13:24:03.174Z,95255.91
2022-08-11T13:26:47.518Z,95259.28
2022-08-11T13:29:26.643Z,95258.28
2022-08-11T13:31:58.367Z,95255.34
2022-08-11T13:34:28.962Z,95253.56
2022-08-11T13:37:00.246Z,95257.00
2022-08-11T13:39:31.475Z,95249.72
2022-08-11T13:42:01.642Z,95247.31
2022-08-11T13:44:36.114Z,95241.91
2022-08-11T13:47:07.531Z,95249.16
2022-08-11T13:49:39.803Z,95247.56
2022-08-11T13:52:14.182Z,95258.34
2022-08-11T13:54:43.778Z,95249.84
2022-08-11T13:58:08.650Z,95264.34
2022-08-11T14:00:12.951Z,95263.03
2022-08-11T14:03:03.675Z,95265.94
2022-08-11T14:05:40.355Z,95263.72
2022-08-11T14:08:37.412Z,95270.22
2022-08-11T14:12:21.751Z,95263.75
2022-08-11T14:14:20.597Z,95255.72
2022-08-11T14:16:52.489Z,95254.97
2022-08-11T14:19:24.481Z,95252.66
2022-08-11T14:22:09.334Z,95249.00
2022-08-11T14:24:40.591Z,95252.56
2022-08-11T14:28:31.038Z,95240.84
2022-08-11T14:30:00.372Z,95239.66
2022-08-11T14:32:30.415Z,95233.78
2022-08-11T14:35:03.337Z,95240.47
2022-08-11T14:37:32.264Z,95231.28
2022-08-11T14:40:22.850Z,95163.38
2022-08-11T14:43:10.764Z,95133.66
2022-08-11T14:46:03.614Z,95215.16
2022-08-11T14:48:34.287Z,95212.28
2022-08-11T14:51:02.879Z,95212.19
2022-08-11T14:53:31.789Z,95221.38
2022-08-11T14:56:19.065Z,95215.94
2022-08-11T14:58:47.926Z,95219.06
2022-08-11T15:01:30.606Z,95211.50
2022-08-11T15:04:24.998Z,95215.53
2022-08-11T15:06:49.884Z,95224.53
2022-08-11T15:09:19.302Z,95219.97
2022-08-11T15:12:33.305Z,95226.34
2022-08-11T15:15:19.602Z,95169.84
2022-08-11T15:17:49.326Z,95208.81
2022-08-11T15:20:38.860Z,95236.66
2022-08-11T15:23:24.889Z,95238.75
2022-08-11T15:25:59.012Z,95075.78
2022-08-11T15:28:46.887Z,95240.34
2022-08-11T15:31:34.409Z,95237.66
2022-08-11T15:34:22.354Z,95094.69
2022-08-11T15:37:16.889Z,95074.91
2022-08-11T15:40:08.305Z,95193.75
2022-08-11T15:43:21.386Z,95235.22
2022-08-11T15:45:54.907Z,95226.59
2022-08-11T15:48:31.412Z,95183.50
2022-08-11T15:51:09.410Z,95209.22
2022-08-11T15:53:45.508Z,95245.81
2022-08-11T15:56:27.565Z,95239.97
2022-08-11T15:59:42.889Z,95239.84
2022-08-11T16:02:37.230Z,95244.13
2022-08-11T16:05:12.093Z,95246.53
2022-08-11T16:07:49.305Z,95197.97
2022-08-11T16:10:23.079Z,95245.50
2022-08-11T16:13:24.381Z,95246.38
2022-08-11T16:16:13.894Z,95232.19
2022-08-11T16:18:47.241Z,95244.72
2022-08-11T16:21:33.525Z,95245.34
2022-08-11T16:24:06.597Z,95241.63
2022-08-11T16:27:10.281Z,95221.94
2022-08-11T16:29:33.015Z,95188.97
2022-08-11T16:32:18.837Z,95228.66
2022-08-11T16:35:07.509Z,95246.97
2022-08-11T16:37:54.999Z,95242.78
2022-08-11T16:40:24.584Z,95241.50
2022-08-11T16:43:13.369Z,95245.72
2022-08-11T16:46:00.902Z,95245.28
2022-08-11T16:48:37.325Z,95196.75
2022-08-11T16:51:07.619Z,95237.75
2022-08-11T16:54:03.376Z,95240.53
2022-08-11T16:56:32.009Z,95235.97
2022-08-11T16:59:16.353Z,95242.56
2022-08-11T17:01:50.378Z,95244.84
2022-08-11T17:04:47.421Z,95124.75
2022-08-11T17:07:41.909Z,95250.53
2022-08-11T17:10:52.698Z,95251.88
2022-08-11T17:13:29.491Z,95268.38
2022-08-11T17:16:11.987Z,95260.97
2022-08-11T17:18:56.056Z,95268.78
2022-08-11T17:21:27.583Z,95269.19
2022-08-11T17:24:02.784Z,95271.00
2022-08-11T17:26:57.191Z,95275.59
2022-08-11T17:29:30.283Z,95283.84
2022-08-11T17:32:19.953Z,95292.16
2022-08-11T17:35:06.933Z,95294.13
2022-08-11T17:37:37.783Z,95296.84
2022-08-11T17:40:12.463Z,95302.75
2022-08-11T17:43:00.873Z,95298.13
2022-08-11T17:45:46.857Z,95297.75
2022-08-11T17:48:26.739Z,95301.75
2022-08-11T17:50:57.572Z,95320.13
2022-08-11T17:54:15.245Z,95324.41
2022-08-11T17:56:51.225Z,95327.63
2022-08-11T17:59:39.243Z,95318.16
2022-08-11T18:02:34.909Z,95315.72
2022-08-11T18:05:12.295Z,95303.44
2022-08-11T18:08:00.390Z,95335.22
2022-08-11T18:10:48.460Z,95342.19
2022-08-11T18:13:35.975Z,95338.16
2022-08-11T18:16:22.064Z,95163.75
2022-08-11T18:19:07.646Z,95340.75
2022-08-11T18:22:00.678Z,95339.53
2022-08-11T18:25:06.897Z,95345.16
2022-08-11T18:27:55.077Z,95346.28
2022-08-11T18:30:43.060Z,95353.94
2022-08-11T18:36:41.460Z,95348.72
2022-08-11T18:39:30.793Z,95351.13
2022-08-11T18:42:29.298Z,95349.09
2022-08-11T18:45:19.608Z,95350.81
2022-08-11T18:48:12.845Z,95346.84
2022-08-11T18:51:30.935Z,95343.19
2022-08-11T18:54:12.053Z,95287.69
2022-08-11T18:57:04.221Z,95348.81
2022-08-11T18:59:54.773Z,95344.91
2022-08-11T19:02:48.994Z,95330.09
2022-08-11T19:06:31.895Z,95348.50
2022-08-11T19:08:48.138Z,95356.09
2022-08-11T19:11:34.576Z,95352.66
2022-08-11T19:14:31.876Z,95358.19
2022-08-11T19:17:44.554Z,95358.63
2022-08-11T19:20:30.170Z,95362.47
2022-08-11T19:23:17.105Z,95365.81
2022-08-11T19:26:03.750Z,95360.44
2022-08-11T19:28:52.468Z,95321.81
2022-08-11T19:31:44.366Z,95376.50
2022-08-11T19:34:32.375Z,95370.03
2022-08-11T19:37:23.554Z,95225.78
2022-08-11T19:40:11.569Z,95352.69
2022-08-11T19:42:59.200Z,95370.63
2022-08-11T19:45:45.878Z,95368.34
2022-08-11T19:48:40.857Z,95369.28
2022-08-11T19:51:28.820Z,95363.72
2022-08-11T19:54:16.237Z,95372.19
2022-08-11T19:57:03.419Z,95362.50
2022-08-11T19:59:51.189Z,95358.81
2022-08-11T20:02:38.413Z,95353.84
2022-08-11T20:05:26.430Z,95361.59
2022-08-11T20:08:15.213Z,95363.34
2022-08-11T20:11:02.858Z,95365.28
2022-08-11T20:13:49.939Z,95360.13
2022-08-11T20:16:38.738Z,95360.81
2022-08-11T20:19:55.319Z,95352.19
2022-08-11T20:22:34.746Z,95354.97
2022-08-11T20:25:23.336Z,95362.59
2022-08-11T20:28:10.737Z,95366.75
2022-08-11T20:30:57.613Z,95357.94
2022-08-11T20:33:44.294Z,95358.41
2022-08-11T20:36:31.778Z,95365.91
2022-08-11T20:39:20.034Z,95364.91
2022-08-11T20:42:07.197Z,95371.91
2022-08-11T20:44:55.848Z,95369.03
2022-08-11T20:47:59.862Z,95378.31
2022-08-11T20:50:50.514Z,95384.84
2022-08-11T20:53:40.637Z,95374.00
2022-08-11T20:56:30.102Z,95377.41
2022-08-11T20:59:21.447Z,95385.09
2022-08-11T21:02:09.625Z,95376.72
2022-08-11T21:04:57.650Z,95379.94
2022-08-11T21:07:55.569Z,95391.50
2022-08-11T21:10:46.743Z,95392.25
2022-08-11T21:13:37.087Z,95394.94
2022-08-11T21:16:27.483Z,95396.44
2022-08-11T21:19:55.144Z,95400.66
2022-08-11T21:22:27.950Z,95405.53
2022-08-11T21:25:16.552Z,95400.88
2022-08-11T21:28:03.507Z,95395.16
2022-08-11T21:30:54.006Z,95351.88
2022-08-11T21:33:46.158Z,95397.66
2022-08-11T21:36:33.496Z,95400.00
2022-08-11T21:39:22.860Z,95406.88
2022-08-11T21:42:12.910Z,95360.31
2022-08-11T21:45:00.949Z,95391.72
2022-08-11T21:47:50.045Z,95411.16
2022-08-11T21:50:46.793Z,95408.50
2022-08-11T21:53:33.221Z,95414.13
2022-08-11T21:56:19.710Z,95394.16
2022-08-11T21:59:08.158Z,95410.78
2022-08-11T22:01:54.594Z,95399.69
2022-08-11T22:04:43.776Z,95400.22
2022-08-11T22:07:30.200Z,95403.72
2022-08-11T22:10:40.907Z,95405.34
2022-08-11T22:13:24.433Z,95402.38
2022-08-11T22:16:10.786Z,95399.59
2022-08-11T22:18:56.545Z,95398.13
2022-08-11T22:22:03.294Z,95399.38
2022-08-11T22:24:51.418Z,95398.38
2022-08-11T22:27:37.441Z,95400.47
2022-08-11T22:30:24.920Z,95386.00
2022-08-11T22:33:11.511Z,95390.47
2022-08-11T22:35:58.036Z,95393.81
2022-08-11T22:38:45.878Z,95395.16
2022-08-11T22:41:32.368Z,95387.06
2022-08-11T22:44:17.659Z,95379.03
2022-08-11T22:47:03.700Z,95349.84
2022-08-11T22:49:57.516Z,95378.59
2022-08-11T22:52:44.743Z,95375.53
2022-08-11T22:55:32.853Z,95376.31
2022-08-11T22:58:20.324Z,95379.34
2022-08-11T23:01:05.738Z,95379.03
2022-08-11T23:03:52.143Z,95323.25
2022-08-11T23:06:38.413Z,95374.34
2022-08-11T23:09:25.383Z,95350.38
2022-08-11T23:12:13.382Z,95373.91
2022-08-11T23:15:00.336Z,95377.63
2022-08-11T23:17:46.980Z,95381.34
2022-08-11T23:20:36.527Z,95373.47
2022-08-11T23:23:31.066Z,95376.41
2022-08-11T23:26:18.562Z,95383.16
2022-08-11T23:29:06.134Z,95375.03
2022-08-11T23:31:55.102Z,95378.53
2022-08-11T23:35:04.364Z,95386.72
2022-08-11T23:37:54.861Z,95383.59
2022-08-11T23:40:41.038Z,95384.47
2022-08-11T23:43:26.912Z,95382.22
2022-08-11T23:46:14.067Z,95379.00
2022-08-11T23:49:00.674Z,95369.88
2022-08-11T23:51:47.633Z,95378.88
2022-08-11T23:54:37.288Z,95384.63
2022-08-11T23:57:24.168Z,95384.03
